createdAt,value
2022-08-22T00:00:17.042Z,20.41
2022-08-22T00:02:43.020Z,21.37
2022-08-22T00:02:58.607Z,20.50
2022-08-22T00:03:08.441Z,19.90
2022-08-22T00:03:17.371Z,19.73
2022-08-22T00:06:02.543Z,20.36
2022-08-22T00:08:35.062Z,20.27
2022-08-22T00:11:08.294Z,20.32
2022-08-22T00:13:47.340Z,19.95
2022-08-22T00:16:29.944Z,20.27
2022-08-22T00:19:05.692Z,20.27
2022-08-22T00:21:40.959Z,19.99
2022-08-22T00:24:23.175Z,20.25
2022-08-22T00:27:04.526Z,20.13
2022-08-22T00:29:44.098Z,20.22
2022-08-22T00:32:21.458Z,20.05
2022-08-22T00:34:55.951Z,20.08
2022-08-22T00:37:29.575Z,19.69
2022-08-22T00:40:05.940Z,20.01
2022-08-22T00:43:13.016Z,20.12
2022-08-22T00:45:55.034Z,20.17
2022-08-22T00:49:16.165Z,20.18
2022-08-22T00:52:26.698Z,20.16
2022-08-22T00:55:25.381Z,20.06
2022-08-22T00:58:24.023Z,20.07
2022-08-22T01:00:55.441Z,20.09
2022-08-22T01:03:49.821Z,20.10
2022-08-22T01:06:26.162Z,20.10
2022-08-22T01:09:02.958Z,20.08
2022-08-22T01:12:12.117Z,20.07
2022-08-22T01:14:45.970Z,20.03
2022-08-22T01:17:41.423Z,19.93
2022-08-22T01:20:30.520Z,19.91
2022-08-22T01:23:30.372Z,19.82
2022-08-22T01:26:40.523Z,19.79
2022-08-22T01:29:39.722Z,19.73
2022-08-22T01:32:50.594Z,19.62
2022-08-22T01:35:38.599Z,19.66
2022-08-22T01:38:27.774Z,19.62
2022-08-22T01:41:17.202Z,19.61
2022-08-22T01:44:09.204Z,19.43
2022-08-22T01:46:48.494Z,19.55
2022-08-22T01:49:20.715Z,19.54
2022-08-22T01:51:55.644Z,19.53
2022-08-22T01:54:32.555Z,19.43
2022-08-22T01:57:04.314Z,19.27
2022-08-22T01:59:42.389Z,19.44
2022-08-22T02:02:36.502Z,19.49
2022-08-22T02:05:10.171Z,19.42
2022-08-22T02:07:49.106Z,19.47
2022-08-22T02:10:23.179Z,19.21
2022-08-22T02:13:01.221Z,19.43
2022-08-22T02:15:45.293Z,19.15
2022-08-22T02:18:19.206Z,19.32
2022-08-22T02:21:00.528Z,19.27
2022-08-22T02:23:37.828Z,19.43
2022-08-22T02:26:09.936Z,19.39
2022-08-22T02:28:57.041Z,19.39
2022-08-22T02:31:38.852Z,19.12
2022-08-22T02:34:22.736Z,19.46
2022-08-22T02:36:58.226Z,19.37
2022-08-22T02:39:36.965Z,19.39
2022-08-22T02:42:16.543Z,19.47
2022-08-22T02:44:55.742Z,19.41
2022-08-22T02:47:31.122Z,19.37
2022-08-22T02:50:05.969Z,19.37
2022-08-22T02:52:51.853Z,19.37
2022-08-22T02:55:41.779Z,19.44
2022-08-22T02:58:19.925Z,19.43
2022-08-22T03:00:51.363Z,19.46
2022-08-22T03:03:26.078Z,19.28
2022-08-22T03:06:01.666Z,19.51
2022-08-22T03:08:33.292Z,19.47
2022-08-22T03:11:19.092Z,19.20
2022-08-22T03:13:57.522Z,19.08
2022-08-22T03:16:30.830Z,19.42
2022-08-22T03:19:05.363Z,19.45
2022-08-22T03:21:38.617Z,19.45
2022-08-22T03:24:13.136Z,19.44
2022-08-22T03:26:48.488Z,19.40
2022-08-22T03:29:21.179Z,19.43
2022-08-22T03:32:14.701Z,19.29
2022-08-22T03:35:00.650Z,19.45
2022-08-22T03:37:40.655Z,19.46
2022-08-22T03:40:24.562Z,19.50
2022-08-22T03:43:13.356Z,19.47
2022-08-22T03:46:27.887Z,19.19
2022-08-22T03:49:26.809Z,19.47
2022-08-22T03:52:08.388Z,19.45
2022-08-22T03:55:05.333Z,19.37
2022-08-22T03:57:55.837Z,19.36
2022-08-22T04:00:55.963Z,19.51
2022-08-22T04:03:59.064Z,19.49
2022-08-22T04:07:00.816Z,19.47
2022-08-22T04:10:14.230Z,19.52
2022-08-22T04:13:11.585Z,19.49
2022-08-22T04:16:13.435Z,19.58
2022-08-22T04:19:14.968Z,19.36
2022-08-22T04:21:54.939Z,19.64
2022-08-22T04:24:52.015Z,19.84
2022-08-22T04:27:25.934Z,19.58
2022-08-22T04:29:58.521Z,19.81
2022-08-22T04:32:34.445Z,19.81
2022-08-22T04:35:07.470Z,19.78
2022-08-22T04:37:40.216Z,19.63
2022-08-22T04:40:13.053Z,19.94
2022-08-22T04:42:44.083Z,19.95
2022-08-22T04:45:17.167Z,19.94
2022-08-22T04:47:54.144Z,20.00
2022-08-22T04:50:26.126Z,20.05
2022-08-22T04:53:11.141Z,19.70
2022-08-22T04:55:50.239Z,19.88
2022-08-22T04:58:35.139Z,19.60
2022-08-22T05:01:11.153Z,20.18
2022-08-22T05:03:48.102Z,20.14
2022-08-22T05:06:19.981Z,20.38
2022-08-22T05:08:53.877Z,20.46
2022-08-22T05:11:24.793Z,20.52
2022-08-22T05:13:58.760Z,20.53
2022-08-22T05:16:35.311Z,20.41
2022-08-22T05:19:12.004Z,20.55
2022-08-22T05:21:44.848Z,20.60
2022-08-22T05:24:18.512Z,20.41
2022-08-22T05:26:50.564Z,20.55
2022-08-22T05:29:25.147Z,20.63
2022-08-22T05:31:57.069Z,20.55
2022-08-22T05:34:32.548Z,20.46
2022-08-22T05:37:08.263Z,20.66
2022-08-22T05:39:39.197Z,20.41
2022-08-22T05:42:15.577Z,20.90
2022-08-22T05:44:44.260Z,21.04
2022-08-22T05:47:23.437Z,21.22
2022-08-22T05:50:00.496Z,21.29
2022-08-22T05:52:58.003Z,21.45
2022-08-22T05:55:30.025Z,21.32
2022-08-22T05:58:16.233Z,21.83
2022-08-22T06:00:48.915Z,22.03
2022-08-22T06:03:20.626Z,22.02
2022-08-22T06:05:53.732Z,22.42
2022-08-22T06:08:26.461Z,22.56
2022-08-22T06:10:57.089Z,22.48
2022-08-22T06:13:32.757Z,22.54
2022-08-22T06:16:09.446Z,22.25
2022-08-22T06:18:42.685Z,21.93
2022-08-22T06:21:14.744Z,22.34
2022-08-22T06:23:46.584Z,22.29
2022-08-22T06:26:20.731Z,22.69
2022-08-22T06:28:55.242Z,22.83
2022-08-22T06:31:27.417Z,22.66
2022-08-22T06:33:59.235Z,22.86
2022-08-22T06:36:32.672Z,22.56
2022-08-22T06:39:08.519Z,22.74
2022-08-22T06:41:40.557Z,22.78
2022-08-22T06:44:17.668Z,22.68
2022-08-22T06:46:47.610Z,22.69
2022-08-22T06:49:17.790Z,22.51
2022-08-22T06:51:51.142Z,22.72
2022-08-22T06:54:24.304Z,22.80
2022-08-22T06:56:56.837Z,22.50
2022-08-22T06:59:28.556Z,22.30
2022-08-22T07:02:05.390Z,22.43
2022-08-22T07:04:34.165Z,22.35
2022-08-22T07:07:04.842Z,22.67
2022-08-22T07:09:37.245Z,22.76
2022-08-22T07:12:14.255Z,22.97
2022-08-22T07:14:45.187Z,23.41
2022-08-22T07:17:19.091Z,23.27
2022-08-22T07:19:56.359Z,23.71
2022-08-22T07:22:28.933Z,23.88
2022-08-22T07:25:05.275Z,23.81
2022-08-22T07:28:05.522Z,23.71
2022-08-22T07:30:43.654Z,23.72
2022-08-22T07:33:28.724Z,23.58
2022-08-22T07:36:01.682Z,23.84
2022-08-22T07:38:42.867Z,23.81
2022-08-22T07:41:15.237Z,23.91
2022-08-22T07:43:47.605Z,23.51
2022-08-22T07:46:28.169Z,23.82
2022-08-22T07:49:09.134Z,23.78
2022-08-22T07:51:43.722Z,24.11
2022-08-22T07:54:16.751Z,24.37
2022-08-22T07:56:51.260Z,24.41
2022-08-22T07:59:22.405Z,24.32
2022-08-22T08:01:54.435Z,24.36
2022-08-22T08:04:26.442Z,24.65
2022-08-22T08:07:03.101Z,24.63
2022-08-22T08:09:34.985Z,24.63
2022-08-22T08:12:06.691Z,24.81
2022-08-22T08:14:38.623Z,24.85
2022-08-22T08:17:12.173Z,24.99
2022-08-22T08:19:42.767Z,24.94
2022-08-22T08:22:17.102Z,25.34
2022-08-22T08:24:48.206Z,25.43
2022-08-22T08:27:42.890Z,25.64
2022-08-22T08:30:15.535Z,25.27
2022-08-22T08:32:48.891Z,24.90
2022-08-22T08:35:21.298Z,25.27
2022-08-22T08:37:52.655Z,25.26
2022-08-22T08:40:48.534Z,25.68
2022-08-22T08:43:34.558Z,25.41
2022-08-22T08:46:28.264Z,25.58
2022-08-22T08:49:35.212Z,25.70
2022-08-22T08:52:48.182Z,25.26
2022-08-22T08:55:34.391Z,25.55
2022-08-22T08:58:18.748Z,25.60
2022-08-22T09:00:53.881Z,25.72
2022-08-22T09:03:38.736Z,25.89
2022-08-22T09:06:30.685Z,25.89
2022-08-22T09:09:14.324Z,25.78
2022-08-22T09:12:01.782Z,25.97
2022-08-22T09:14:57.792Z,26.10
2022-08-22T09:18:10.820Z,26.15
2022-08-22T09:21:01.164Z,26.46
2022-08-22T09:24:02.065Z,26.48
2022-08-22T09:26:38.953Z,26.46
2022-08-22T09:29:29.073Z,26.77
2022-08-22T09:32:13.178Z,26.96
2022-08-22T09:35:00.307Z,27.10
2022-08-22T09:37:40.555Z,26.78
2022-08-22T09:40:18.894Z,27.15
2022-08-22T09:42:57.043Z,27.27
2022-08-22T09:45:49.934Z,27.58
2022-08-22T09:48:39.000Z,27.86
2022-08-22T09:51:31.437Z,27.85
2022-08-22T09:54:20.326Z,27.24
2022-08-22T09:57:17.119Z,27.70
2022-08-22T10:00:31.054Z,27.72
2022-08-22T10:03:11.328Z,27.81
2022-08-22T10:05:48.240Z,27.85
2022-08-22T10:08:32.636Z,27.82
2022-08-22T10:11:14.421Z,27.66
2022-08-22T10:13:57.647Z,27.32
2022-08-22T10:17:03.076Z,27.52
2022-08-22T10:19:46.859Z,27.47
2022-08-22T10:22:30.321Z,27.79
2022-08-22T10:25:15.250Z,27.76
2022-08-22T10:27:57.544Z,28.03
2022-08-22T10:30:32.117Z,27.80
2022-08-22T10:33:06.283Z,28.05
2022-08-22T10:35:45.821Z,28.13
2022-08-22T10:38:25.075Z,28.03
2022-08-22T10:41:00.764Z,28.05
2022-08-22T10:43:39.128Z,28.03
2022-08-22T10:46:15.425Z,27.93
2022-08-22T10:48:54.044Z,28.10
2022-08-22T10:51:55.369Z,28.23
2022-08-22T10:54:44.720Z,28.20
2022-08-22T10:57:23.980Z,28.21
2022-08-22T10:59:59.001Z,28.19
2022-08-22T11:02:47.801Z,27.89
2022-08-22T11:05:37.618Z,28.12
2022-08-22T11:08:30.296Z,27.98
2022-08-22T11:11:15.049Z,28.07
2022-08-22T11:13:58.574Z,27.92
2022-08-22T11:16:46.091Z,28.11
2022-08-22T11:19:40.104Z,28.02
2022-08-22T11:22:16.351Z,28.17
2022-08-22T11:25:11.991Z,27.96
2022-08-22T11:27:50.989Z,28.01
2022-08-22T11:30:22.925Z,27.87
2022-08-22T11:33:46.445Z,27.93
2022-08-22T11:36:33.699Z,28.16
2022-08-22T11:39:13.774Z,28.11
2022-08-22T11:41:56.461Z,28.20
2022-08-22T11:44:31.401Z,28.28
2022-08-22T11:47:05.706Z,28.27
2022-08-22T11:50:29.413Z,28.28
2022-08-22T11:53:20.475Z,28.00
2022-08-22T11:55:59.263Z,28.12
2022-08-22T11:58:40.179Z,28.40
2022-08-22T12:01:18.381Z,28.30
2022-08-22T12:04:19.492Z,28.09
2022-08-22T12:06:56.133Z,28.24
2022-08-22T12:09:44.979Z,28.29
2022-08-22T12:12:44.277Z,28.24
2022-08-22T12:15:21.561Z,28.26
2022-08-22T12:18:21.423Z,28.13
2022-08-22T12:21:14.486Z,28.19
2022-08-22T12:23:57.754Z,27.70
2022-08-22T12:26:48.746Z,28.18
2022-08-22T12:29:39.716Z,28.19
2022-08-22T12:32:57.215Z,28.21
2022-08-22T12:35:39.699Z,28.26
2022-08-22T12:38:29.179Z,28.06
2022-08-22T12:41:28.295Z,28.03
2022-08-22T12:44:27.764Z,28.18
2022-08-22T12:47:36.445Z,28.11
2022-08-22T12:50:28.163Z,28.50
2022-08-22T12:53:32.684Z,28.57
2022-08-22T12:56:10.355Z,28.58
2022-08-22T12:59:01.172Z,28.56
2022-08-22T13:01:43.200Z,28.63
2022-08-22T13:04:33.332Z,28.45
2022-08-22T13:07:27.293Z,27.87
2022-08-22T13:10:06.661Z,28.47
2022-08-22T13:12:44.480Z,28.52
2022-08-22T13:15:38.362Z,28.33
2022-08-22T13:18:32.410Z,28.54
2022-08-22T13:21:14.503Z,28.09
2022-08-22T13:23:50.800Z,28.38
2022-08-22T13:26:33.973Z,28.41
2022-08-22T13:29:25.310Z,28.41
2022-08-22T13:32:01.953Z,28.48
2022-08-22T13:34:40.058Z,28.38
2022-08-22T13:37:13.589Z,28.37
2022-08-22T13:39:49.124Z,28.40
2022-08-22T13:42:30.383Z,28.44
2022-08-22T13:45:06.181Z,28.37
2022-08-22T13:47:39.532Z,28.53
2022-08-22T13:50:14.000Z,28.51
2022-08-22T13:52:52.329Z,28.25
2022-08-22T13:55:29.539Z,28.45
2022-08-22T13:58:07.537Z,28.42
2022-08-22T14:01:17.653Z,28.24
2022-08-22T14:03:49.705Z,28.45
2022-08-22T14:06:43.966Z,28.36
2022-08-22T14:09:29.398Z,28.32
2022-08-22T14:12:24.478Z,28.16
2022-08-22T14:14:58.755Z,28.12
2022-08-22T14:17:42.516Z,28.16
2022-08-22T14:20:32.060Z,28.19
2022-08-22T14:23:09.333Z,28.16
2022-08-22T14:25:42.858Z,28.17
2022-08-22T14:28:33.313Z,28.15
2022-08-22T14:31:22.196Z,27.66
2022-08-22T14:33:54.652Z,28.05
2022-08-22T14:36:27.083Z,27.85
2022-08-22T14:39:00.608Z,27.99
2022-08-22T14:41:52.448Z,27.94
2022-08-22T14:44:32.201Z,27.81
2022-08-22T14:47:43.336Z,27.50
2022-08-22T14:50:47.507Z,27.54
2022-08-22T14:53:40.680Z,27.39
2022-08-22T14:56:13.017Z,27.71
2022-08-22T14:58:51.578Z,27.32
2022-08-22T15:01:29.726Z,27.46
2022-08-22T15:06:59.776Z,27.63
2022-08-22T15:09:35.222Z,27.41
2022-08-22T15:12:06.198Z,27.40
2022-08-22T15:14:52.354Z,27.23
2022-08-22T15:17:44.217Z,27.51
2022-08-22T15:20:28.759Z,27.50
2022-08-22T15:23:00.597Z,27.47
2022-08-22T15:25:32.421Z,27.21
2022-08-22T15:28:07.495Z,27.26
2022-08-22T15:30:54.139Z,27.14
2022-08-22T15:33:27.639Z,27.17
2022-08-22T15:36:11.029Z,27.12
2022-08-22T15:38:47.909Z,27.22
2022-08-22T15:41:36.015Z,27.21
2022-08-22T15:44:33.213Z,27.12
2022-08-22T15:47:11.971Z,27.21
2022-08-22T15:49:59.265Z,27.11
2022-08-22T15:52:31.168Z,27.11
2022-08-22T15:55:34.482Z,27.14
2022-08-22T15:58:21.446Z,27.09
2022-08-22T16:01:19.136Z,26.86
2022-08-22T16:03:59.096Z,27.03
2022-08-22T16:07:01.962Z,26.99
2022-08-22T16:09:38.328Z,26.94
2022-08-22T16:12:13.390Z,26.90
2022-08-22T16:14:50.046Z,26.75
2022-08-22T16:17:44.919Z,26.85
2022-08-22T16:20:57.856Z,26.78
2022-08-22T16:23:28.419Z,26.76
2022-08-22T16:26:21.554Z,26.66
2022-08-22T16:28:58.515Z,26.45
2022-08-22T16:31:35.661Z,26.71
2022-08-22T16:34:25.097Z,26.50
2022-08-22T16:37:36.088Z,26.49
2022-08-22T16:40:15.598Z,26.60
2022-08-22T16:42:47.796Z,26.51
2022-08-22T16:45:19.786Z,26.38
2022-08-22T16:48:05.298Z,26.17
2022-08-22T16:50:37.675Z,26.30
2022-08-22T16:53:12.400Z,26.32
2022-08-22T16:55:48.782Z,26.02
2022-08-22T16:59:00.862Z,26.21
2022-08-22T17:01:47.316Z,26.10
2022-08-22T17:04:39.746Z,25.82
2022-08-22T17:07:50.748Z,26.10
2022-08-22T17:10:35.164Z,26.07
2022-08-22T17:13:20.314Z,26.06
2022-08-22T17:16:13.705Z,26.04
2022-08-22T17:19:14.072Z,26.04
2022-08-22T17:21:51.773Z,25.84
2022-08-22T17:24:31.946Z,26.00
2022-08-22T17:27:07.909Z,25.84
2022-08-22T17:29:46.400Z,25.44
2022-08-22T17:32:21.607Z,25.84
2022-08-22T17:35:17.649Z,25.84
2022-08-22T17:40:48.759Z,25.56
2022-08-22T17:43:36.209Z,25.58
2022-08-22T17:46:38.563Z,25.54
2022-08-22T17:49:38.120Z,25.38
2022-08-22T17:52:11.842Z,25.45
2022-08-22T17:54:47.029Z,25.56
2022-08-22T17:57:41.276Z,25.38
2022-08-22T18:00:18.937Z,25.09
2022-08-22T18:02:58.862Z,25.48
2022-08-22T18:05:32.333Z,25.25
2022-08-22T18:11:18.690Z,25.37
2022-08-22T18:17:14.738Z,24.90
2022-08-22T18:23:21.760Z,24.99
2022-08-22T18:26:30.196Z,25.26
2022-08-22T18:29:54.054Z,25.20
2022-08-22T18:39:10.586Z,24.77
2022-08-22T18:42:03.984Z,24.60
2022-08-22T18:53:37.234Z,24.45
2022-08-22T19:11:54.111Z,24.41
2022-08-22T19:18:47.957Z,24.60
2022-08-22T19:25:54.287Z,24.82
2022-08-22T19:44:31.123Z,24.71
2022-08-22T19:54:23.064Z,23.89
2022-08-22T20:05:31.518Z,24.41
2022-08-22T20:53:10.011Z,23.38
2022-08-22T20:55:47.273Z,23.18
2022-08-22T21:02:22.482Z,23.13
2022-08-22T21:09:20.226Z,23.16
2022-08-22T21:11:59.828Z,22.58
2022-08-22T21:14:46.482Z,22.92
2022-08-22T21:17:34.328Z,23.16
2022-08-22T21:26:30.592Z,23.31
2022-08-22T21:29:33.793Z,23.28
2022-08-22T21:32:20.769Z,23.17
2022-08-22T21:37:54.126Z,22.47
2022-08-22T21:40:44.616Z,22.89
2022-08-22T21:43:30.228Z,23.09
2022-08-22T21:45:59.693Z,22.91
2022-08-22T21:48:34.262Z,23.02
2022-08-22T21:51:58.338Z,22.97
2022-08-22T21:54:49.475Z,22.24
2022-08-22T21:57:39.155Z,22.87
2022-08-22T22:00:33.480Z,22.50
2022-08-22T22:03:08.215Z,22.74
2022-08-22T22:05:39.612Z,22.56
2022-08-22T22:08:14.105Z,22.60
2022-08-22T22:10:45.938Z,21.85
2022-08-22T22:13:15.968Z,22.53
2022-08-22T22:15:54.127Z,22.48
2022-08-22T22:18:24.805Z,22.08
2022-08-22T22:20:57.596Z,21.86
2022-08-22T22:26:02.602Z,21.91
2022-08-22T22:28:33.511Z,21.94
2022-08-22T22:31:07.523Z,21.72
2022-08-22T22:33:43.414Z,21.71
2022-08-22T22:36:15.659Z,21.47
2022-08-22T22:38:46.334Z,22.04
2022-08-22T22:41:15.411Z,21.74
2022-08-22T22:43:46.198Z,21.65
2022-08-22T22:46:18.490Z,21.65
2022-08-22T22:48:53.891Z,21.83
2022-08-22T22:51:22.744Z,21.93
2022-08-22T22:53:53.966Z,21.48
2022-08-22T22:56:24.749Z,21.37
2022-08-22T22:59:00.946Z,21.25
2022-08-22T23:02:01.973Z,21.48
2022-08-22T23:04:37.080Z,21.56
2022-08-22T23:07:08.976Z,21.41
2022-08-22T23:09:38.628Z,21.77
2022-08-22T23:12:18.083Z,21.74
2022-08-22T23:14:51.307Z,21.70
2022-08-22T23:17:27.640Z,21.67
2022-08-22T23:19:58.855Z,21.63
2022-08-22T23:22:35.025Z,21.38
2022-08-22T23:25:07.199Z,21.20
2022-08-22T23:27:35.902Z,21.38
2022-08-22T23:30:13.186Z,21.32
2022-08-22T23:32:48.811Z,21.30
2022-08-22T23:35:17.681Z,21.74
2022-08-22T23:37:48.741Z,21.81
2022-08-22T23:40:17.502Z,21.88
2022-08-22T23:42:48.678Z,21.89
2022-08-22T23:45:24.709Z,21.62
2022-08-22T23:47:56.201Z,21.59
2022-08-22T23:50:24.924Z,21.93
2022-08-22T23:52:55.958Z,21.57
2022-08-22T23:55:26.714Z,21.40
2022-08-22T23:57:58.632Z,21.71
